Time,TemperatureF,DewpointF,PressureIn,WindDirection,WindDirectionDegrees,WindSpeedMPH,WindSpeedGustMPH,Humidity,HourlyPrecipIn,Conditions,Clouds,dailyrainin,SoftwareType,DateUTC
2013-04-15 00:50:00,55.4,48.0,29.69,SSW,202,0.0,-999.0,76,-99.99,,,0.00,Acu-Link.com,2013-04-15 07:50:00,
2013-04-15 01:08:00,54.9,48.2,29.69,SSW,202,0.0,-999.0,78,-99.99,,,0.00,Acu-Link.com,2013-04-15 08:08:00,
2013-04-15 01:24:00,54.5,48.5,29.69,SSW,202,0.0,-999.0,80,-99.99,,,0.00,Acu-Link.com,2013-04-15 08:24:00,
2013-04-15 01:40:00,54.0,48.3,29.69,South,180,0.0,-999.0,81,-99.99,,,0.00,Acu-Link.com,2013-04-15 08:40:00,
2013-04-15 01:55:00,52.3,47.9,29.69,SSW,202,2.7,-999.0,85,-99.99,,,0.00,Acu-Link.com,2013-04-15 08:55:00,
2013-04-15 02:10:00,51.6,48.2,29.69,South,180,4.2,-999.0,88,-99.99,,,0.00,Acu-Link.com,2013-04-15 09:10:00,
2013-04-15 02:41:00,51.4,48.6,29.70,SSW,202,2.7,-999.0,90,-99.99,,,0.00,Acu-Link.com,2013-04-15 09:41:00,
2013-04-15 02:56:00,51.4,48.6,29.70,ESE,112,2.2,-999.0,90,-99.99,,,0.00,Acu-Link.com,2013-04-15 09:56:00,
2013-04-15 03:11:00,51.4,48.6,29.71,South,180,0.0,-999.0,90,-99.99,,,0.00,Acu-Link.com,2013-04-15 10:11:00,
2013-04-15 03:26:00,50.9,48.4,29.71,South,180,0.0,-999.0,91,-99.99,,,0.00,Acu-Link.com,2013-04-15 10:26:00,
2013-04-15 03:42:00,50.5,48.3,29.71,SSW,202,4.7,-999.0,92,-99.99,,,0.00,Acu-Link.com,2013-04-15 10:42:00,
2013-04-15 03:57:00,50.4,48.5,29.71,South,180,2.7,-999.0,93,-99.99,,,0.00,Acu-Link.com,2013-04-15 10:57:00,
2013-04-15 04:14:00,49.8,48.4,29.72,South,180,0.0,-999.0,95,-99.99,,,0.00,Acu-Link.com,2013-04-15 11:14:00,
2013-04-15 04:30:00,49.8,48.7,29.72,South,180,0.0,-999.0,96,-99.99,,,0.00,Acu-Link.com,2013-04-15 11:30:00,
2013-04-15 04:46:00,49.6,48.5,29.72,South,180,0.0,-999.0,96,-99.99,,,0.00,Acu-Link.com,2013-04-15 11:46:00,
2013-04-15 05:02:00,49.1,48.0,29.72,South,180,0.0,-999.0,96,-99.99,,,0.00,Acu-Link.com,2013-04-15 12:02:00,
2013-04-15 05:18:00,48.6,47.8,29.72,SSE,157,0.0,-999.0,97,-99.99,,,0.00,Acu-Link.com,2013-04-15 12:18:00,
2013-04-15 05:34:00,48.4,47.6,29.72,South,180,0.0,-999.0,97,-99.99,,,0.00,Acu-Link.com,2013-04-15 12:34:00,
2013-04-15 05:50:00,47.8,47.0,29.73,SSE,157,0.0,-999.0,97,-99.99,,,0.00,Acu-Link.com,2013-04-15 12:50:00,
2013-04-15 06:20:00,47.1,46.6,29.74,SSW,202,1.7,-999.0,98,-99.99,,,0.00,Acu-Link.com,2013-04-15 13:20:00,
2013-04-15 06:35:00,46.9,46.4,29.74,SSW,202,0.0,-999.0,98,-99.99,,,0.00,Acu-Link.com,2013-04-15 13:35:00,
2013-04-15 06:54:00,46.9,46.4,29.74,SSW,202,0.0,-999.0,98,-99.99,,,0.00,Acu-Link.com,2013-04-15 13:54:00,
2013-04-15 07:09:00,47.1,46.6,29.74,SSW,202,0.0,-999.0,98,-99.99,,,0.00,Acu-Link.com,2013-04-15 14:09:00,
2013-04-15 07:24:00,47.8,47.3,29.74,SSW,202,0.0,-999.0,98,-99.99,,,0.00,Acu-Link.com,2013-04-15 14:24:00,
2013-04-15 07:40:00,48.7,48.2,29.74,South,180,0.0,-999.0,98,-99.99,,,0.00,Acu-Link.com,2013-04-15 14:40:00,
2013-04-15 08:10:00,52.5,49.7,29.75,SSE,157,2.2,-999.0,90,-99.99,,,0.00,Acu-Link.com,2013-04-15 15:10:00,
2013-04-15 08:25:00,55.0,50.6,29.74,SE,135,0.0,-999.0,85,-99.99,,,0.00,Acu-Link.com,2013-04-15 15:25:00,
2013-04-15 08:40:00,58.3,51.1,29.74,SSE,157,1.7,-999.0,77,-99.99,,,0.00,Acu-Link.com,2013-04-15 15:40:00,
2013-04-15 08:55:00,61.5,50.8,29.74,NNE,22,2.2,-999.0,68,-99.99,,,0.00,Acu-Link.com,2013-04-15 15:55:00,
2013-04-15 09:42:00,60.3,49.7,29.73,SW,225,3.2,-999.0,68,-99.99,,,0.00,Acu-Link.com,2013-04-15 16:42:00,
2013-04-15 10:02:00,64.0,51.6,29.73,South,180,0.0,-999.0,64,-99.99,,,0.00,Acu-Link.com,2013-04-15 17:02:00,
2013-04-15 10:23:00,64.2,50.9,29.73,NE,45,0.0,-999.0,62,-99.99,,,0.00,Acu-Link.com,2013-04-15 17:23:00,
2013-04-15 10:58:00,63.3,50.1,29.72,South,180,0.0,-999.0,62,-99.99,,,0.00,Acu-Link.com,2013-04-15 17:58:00,
2013-04-15 11:15:00,61.5,50.0,29.71,West,270,0.0,-999.0,66,-99.99,,,0.00,Acu-Link.com,2013-04-15 18:15:00,
2013-04-15 11:31:00,67.8,50.5,29.73,SSW,202,0.0,-999.0,54,-99.99,,,0.00,Acu-Link.com,2013-04-15 18:31:00,
2013-04-15 11:47:00,64.2,49.1,29.72,North,0,0.0,-999.0,58,-99.99,,,0.00,Acu-Link.com,2013-04-15 18:47:00,
2013-04-15 12:02:00,62.1,48.5,29.72,NE,45,3.2,-999.0,61,-99.99,,,0.00,Acu-Link.com,2013-04-15 19:02:00,
2013-04-15 12:20:00,63.5,49.4,29.71,East,90,0.0,-999.0,60,-99.99,,,0.00,Acu-Link.com,2013-04-15 19:20:00,
2013-04-15 13:07:00,66.2,50.0,29.69,NE,45,0.0,-999.0,56,-99.99,,,0.00,Acu-Link.com,2013-04-15 20:07:00,
2013-04-15 13:22:00,67.5,47.7,29.71,East,90,1.7,-999.0,49,-99.99,,,0.00,Acu-Link.com,2013-04-15 20:22:00,
2013-04-15 13:37:00,67.1,45.6,29.70,South,180,2.2,-999.0,46,-99.99,,,0.00,Acu-Link.com,2013-04-15 20:37:00,
2013-04-15 13:52:00,65.8,45.6,29.70,South,180,0.0,-999.0,48,-99.99,,,0.00,Acu-Link.com,2013-04-15 20:52:00,
2013-04-15 14:09:00,65.7,43.8,29.66,SSE,157,0.0,-999.0,45,-99.99,,,0.00,Acu-Link.com,2013-04-15 21:09:00,
2013-04-15 14:24:00,66.6,47.4,29.67,SSE,157,2.2,-999.0,50,-99.99,,,0.00,Acu-Link.com,2013-04-15 21:24:00,
2013-04-15 14:42:00,68.7,49.3,29.66,SE,135,3.2,-999.0,50,-99.99,,,0.00,Acu-Link.com,2013-04-15 21:42:00,
2013-04-15 14:57:00,69.3,47.6,29.66,South,180,1.7,-999.0,46,-99.99,,,0.00,Acu-Link.com,2013-04-15 21:57:00,
2013-04-15 15:14:00,66.9,46.0,29.65,SW,225,0.0,-999.0,47,-99.99,,,0.00,Acu-Link.com,2013-04-15 22:14:00,
2013-04-15 15:31:00,65.5,45.3,29.65,SE,135,0.0,-999.0,48,-99.99,,,0.00,Acu-Link.com,2013-04-15 22:31:00,
2013-04-15 16:01:00,55.8,48.3,29.66,NNE,22,2.7,-999.0,76,-99.99,,,0.01,Acu-Link.com,2013-04-15 23:01:00,
2013-04-15 16:16:00,53.1,49.9,29.68,North,0,3.2,-999.0,89,-99.99,,,0.01,Acu-Link.com,2013-04-15 23:16:00,
2013-04-15 16:31:00,52.4,32.2,29.66,NNE,22,2.7,-999.0,46,-99.99,,,0.04,Acu-Link.com,2013-04-15 23:31:00,
2013-04-15 16:47:00,54.3,52.0,29.66,ESE,112,2.2,-999.0,92,-99.99,,,0.04,Acu-Link.com,2013-04-15 23:47:00,
2013-04-15 17:02:00,56.5,52.0,29.66,ESE,112,3.7,-999.0,85,-99.99,,,0.04,Acu-Link.com,2013-04-16 00:02:00,
2013-04-15 17:19:00,55.9,50.2,29.68,ENE,67,4.2,-999.0,81,-99.99,,,0.04,Acu-Link.com,2013-04-16 00:19:00,
2013-04-15 17:35:00,55.6,48.8,29.68,SSE,157,2.7,-999.0,78,-99.99,,,0.04,Acu-Link.com,2013-04-16 00:35:00,
2013-04-15 17:50:00,55.9,48.4,29.68,SSW,202,3.7,-999.0,76,-99.99,,,0.04,Acu-Link.com,2013-04-16 00:50:00,
2013-04-15 18:06:00,55.8,48.7,29.68,East,90,1.7,-999.0,77,-99.99,,,0.04,Acu-Link.com,2013-04-16 01:06:00,
2013-04-15 18:21:00,56.7,48.1,29.67,ENE,67,3.7,-999.0,73,-99.99,,,0.04,Acu-Link.com,2013-04-16 01:21:00,
2013-04-15 18:36:00,56.1,47.9,29.67,ENE,67,0.0,-999.0,74,-99.99,,,0.04,Acu-Link.com,2013-04-16 01:36:00,
2013-04-15 19:09:00,54.0,46.3,29.68,East,90,0.0,-999.0,75,-99.99,,,0.04,Acu-Link.com,2013-04-16 02:09:00,
2013-04-15 19:26:00,53.6,46.6,29.69,SSW,202,0.0,-999.0,77,-99.99,,,0.04,Acu-Link.com,2013-04-16 02:26:00,
2013-04-15 19:41:00,54.0,47.0,29.69,SSW,202,0.0,-999.0,77,-99.99,,,0.05,Acu-Link.com,2013-04-16 02:41:00,
2013-04-15 19:57:00,53.8,46.8,29.70,SSW,202,0.0,-999.0,77,-99.99,,,0.05,Acu-Link.com,2013-04-16 02:57:00,
2013-04-15 20:12:00,53.2,46.9,29.70,SSE,157,0.0,-999.0,79,-99.99,,,0.05,Acu-Link.com,2013-04-16 03:12:00,
2013-04-15 20:27:00,53.2,46.9,29.71,ESE,112,0.0,-999.0,79,-99.99,,,0.05,Acu-Link.com,2013-04-16 03:27:00,
2013-04-15 20:46:00,52.9,47.2,29.72,SSW,202,0.0,-999.0,81,-99.99,,,0.05,Acu-Link.com,2013-04-16 03:46:00,
2013-04-15 21:01:00,52.7,46.7,29.71,SSW,202,0.0,-999.0,80,-99.99,,,0.05,Acu-Link.com,2013-04-16 04:01:00,
2013-04-15 21:31:00,54.3,41.6,29.68,NE,45,1.7,-999.0,62,-99.99,,,0.05,Acu-Link.com,2013-04-16 04:31:00,
2013-04-15 22:01:00,53.8,40.7,29.72,NE,45,0.0,-999.0,61,-99.99,,,0.05,Acu-Link.com,2013-04-16 05:01:00,
2013-04-15 22:17:00,53.1,40.8,29.74,North,0,0.0,-999.0,63,-99.99,,,0.05,Acu-Link.com,2013-04-16 05:17:00,
2013-04-15 22:32:00,52.5,40.3,29.75,NE,45,0.0,-999.0,63,-99.99,,,0.05,Acu-Link.com,2013-04-16 05:32:00,
2013-04-15 22:47:00,52.3,39.7,29.76,ENE,67,0.0,-999.0,62,-99.99,,,0.05,Acu-Link.com,2013-04-16 05:47:00,
2013-04-15 23:02:00,51.8,39.2,29.76,NNE,22,0.0,-999.0,62,-99.99,,,0.05,Acu-Link.com,2013-04-16 06:02:00,
2013-04-15 23:17:00,51.4,38.4,29.76,ENE,67,1.7,-999.0,61,-99.99,,,0.05,Acu-Link.com,2013-04-16 06:17:00,
2013-04-15 23:32:00,51.1,37.7,29.76,ENE,67,2.7,-999.0,60,-99.99,,,0.05,Acu-Link.com,2013-04-16 06:32:00,
2013-04-15 23:47:00,50.5,37.6,29.77,NE,45,1.7,-999.0,61,-99.99,,,0.05,Acu-Link.com,2013-04-16 06:47:00,